Ana Sayfa
METAR-TAF:

METAR-TAF

Havaalanları :

St. Catharines, Ontario, Kanada

Enlem: 43-12N, Boylam: 079-10W, yükseklik: 98 m

Güncel hava durumu gözlemi

Rapor saat 11:00 UTC de 1 saat ve 5 dakika önce yapıldı.
Rüzgar batı/güneybatıdan 10 kt
Sıcaklık 26°C
Nem 94%
Basınç 1009 hPa
Görüş mesafesi: 24.1 km
2000 ft yükseklikte az bulutlu
12000 ft yükseklikte az bulutlu

METAR: CYSN 191100Z 24010KT 15SM FEW020 FEW120 26/25 A2980 RMK SC1AC1 SC TR SLP090 DENSITY ALT 1800FT

Saat: 08:05 (12:05 UTC)

Tahmin

Rapor saat 19:42 UTC de 16 saat ve 23 dakika önce yapıldı.
Ayın 18'si saat 20 UTC'den ayın 19'si saat 01 UTC'ye kadar geçerli Tahmin
Rüzgar kuzey/kuzeybatıdan 6 kt
Görüş mesafesi: 10 km
3000 ft yükseklikte parçalı bulutlu
Dönüşüyor
ayın 18'si saat 20 UTC'den ayın 18'si saat 22 UTC'ye kadar
Rüzgar değişken yönden 3 kt

TAF: CYSN 181942Z 1820/1901 34006KT P6SM SCT030 BECMG 1820/1822 VRB03KT RMK NXT FCST WILL BE ISSUED AT 191245Z

4.000'den fazla havaalanı için hava durumu gözlemleri ve tahminleri (METAR ve TAF raporları).

Kullanılabilir istasyonlar harita üzerinde sarı ve kırmızı noktalarla gösterilir.

İstasyonun adını görmek için fareyi noktanın üzerinde gezdirin.

Sonrasında hava gözlem ve tahminlerini görmek için tıklayın.

Haritayı değiştirmek için: yaklaştırmak için siyah artı işaretli yeşil düğmeye ve uzaklaştırmak için de eksi işaretli düğmeye hızla tıklayın; bitişik haritalar için yeşil okları kullanın.


METAR-TAF: